Time;durP1;ratioP1;P1;durP2;ratioP2;P2;SDS_P1;SDS_P2;PMS_P1;PMS_P2;Temp;Humidity;BMP_temperature;BMP_pressure;BME280_temperature;BME280_humidity;BME280_pressure;Samples;Min_cycle;Max_cycle;Signal;HPM_P1;HPM_P2
2022/11/09 00:01:30;;;;;;;4.97;2.63;;;15.40;99.90;;;;;;5073372;28;20495;-80
2022/11/09 00:04:01;;;;;;;3.30;2.25;;;15.40;99.90;;;;;;5071849;28;20078;-80
2022/11/09 00:06:28;;;;;;;7.15;2.50;;;15.40;99.90;;;;;;5073267;28;20115;-79
2022/11/09 00:08:54;;;;;;;3.90;2.13;;;15.50;99.90;;;;;;5073638;28;20074;-79
2022/11/09 00:11:20;;;;;;;5.28;2.50;;;15.60;99.90;;;;;;5073437;28;20037;-80
2022/11/09 00:13:46;;;;;;;4.93;2.00;;;15.50;99.90;;;;;;5073665;28;20024;-80
2022/11/09 00:16:15;;;;;;;6.20;2.38;;;15.40;99.90;;;;;;5073578;28;20024;-80
2022/11/09 00:18:46;;;;;;;4.55;2.45;;;15.30;99.90;;;;;;5092373;28;20070;-80
2022/11/09 00:21:16;;;;;;;4.10;2.65;;;15.10;99.90;;;;;;5093901;28;20024;-79
2022/11/09 00:23:42;;;;;;;5.30;2.53;;;15.10;99.90;;;;;;5093076;28;20088;-79
2022/11/09 00:26:10;;;;;;;6.47;2.70;;;15.10;99.90;;;;;;5093202;28;20063;-79
2022/11/09 00:28:36;;;;;;;6.30;2.67;;;15.20;99.90;;;;;;5093216;28;20027;-79
2022/11/09 00:31:04;;;;;;;3.13;2.50;;;15.20;99.90;;;;;;5093279;28;20488;-79
2022/11/09 00:33:30;;;;;;;3.03;2.38;;;15.30;99.90;;;;;;5092645;28;20099;-80
2022/11/09 00:35:55;;;;;;;4.57;2.42;;;15.30;99.90;;;;;;5093161;28;20134;-80
2022/11/09 00:38:21;;;;;;;3.50;2.75;;;15.30;99.90;;;;;;5092738;28;20032;-79
2022/11/09 00:40:47;;;;;;;5.22;2.42;;;15.40;99.90;;;;;;5093092;28;20077;-79
2022/11/09 00:43:14;;;;;;;5.03;2.60;;;15.40;99.90;;;;;;5092796;28;20115;-80
2022/11/09 00:45:40;;;;;;;3.92;2.72;;;15.50;99.90;;;;;;5092493;28;20035;-79
2022/11/09 00:48:06;;;;;;;5.30;2.75;;;15.40;99.90;;;;;;5092858;28;20028;-79
2022/11/09 00:50:32;;;;;;;4.22;2.65;;;15.70;99.90;;;;;;5092793;28;20024;-79
2022/11/09 00:52:58;;;;;;;6.78;3.08;;;15.40;99.90;;;;;;5093071;28;20395;-79
2022/11/09 00:55:24;;;;;;;5.57;3.42;;;15.40;99.90;;;;;;5091503;28;20420;-79
2022/11/09 00:57:51;;;;;;;7.10;3.50;;;15.40;99.90;;;;;;5092878;28;20076;-79
2022/11/09 01:00:18;;;;;;;3.75;3.03;;;15.30;99.90;;;;;;5092816;28;20028;-79
2022/11/09 01:02:44;;;;;;;5.00;3.42;;;15.30;99.90;;;;;;5093163;28;20032;-79
2022/11/09 01:05:10;;;;;;;5.78;3.25;;;15.30;99.90;;;;;;5092748;28;20078;-80
2022/11/09 01:07:36;;;;;;;3.85;2.72;;;15.30;99.90;;;;;;5092841;28;20039;-79
2022/11/09 01:10:03;;;;;;;4.20;2.88;;;15.30;99.90;;;;;;5093765;28;20110;-79
2022/11/09 01:12:29;;;;;;;5.25;2.88;;;15.40;99.90;;;;;;5093234;28;20028;-79
2022/11/09 01:14:54;;;;;;;5.15;3.40;;;15.40;99.90;;;;;;5092211;28;20034;-79
2022/11/09 01:17:21;;;;;;;5.88;3.60;;;15.30;99.90;;;;;;5093191;28;20389;-79
2022/11/09 01:19:47;;;;;;;5.72;3.80;;;15.30;99.90;;;;;;5092592;28;20032;-80
2022/11/09 01:22:12;;;;;;;7.15;3.78;;;15.30;99.90;;;;;;5093099;28;20150;-80
2022/11/09 01:24:38;;;;;;;6.68;4.07;;;15.20;99.90;;;;;;5092356;28;20535;-79
2022/11/09 01:27:04;;;;;;;6.00;3.58;;;15.20;99.90;;;;;;5093023;28;20028;-79
2022/11/09 01:29:29;;;;;;;4.60;3.30;;;15.10;99.90;;;;;;5092358;28;20369;-80
2022/11/09 01:31:55;;;;;;;5.90;4.13;;;15.20;99.90;;;;;;5092456;28;20024;-80
2022/11/09 01:34:21;;;;;;;5.60;3.63;;;15.20;99.90;;;;;;5092566;28;20384;-80
2022/11/09 01:36:50;;;;;;;7.88;4.47;;;15.10;99.90;;;;;;5092037;28;20051;-80
2022/11/09 01:39:17;;;;;;;9.70;4.20;;;14.90;99.90;;;;;;5092229;28;20555;-80
2022/11/09 01:41:42;;;;;;;6.20;4.25;;;15.00;99.90;;;;;;5093307;28;20024;-80
2022/11/09 01:44:12;;;;;;;7.80;4.10;;;15.00;99.90;;;;;;5092377;28;20062;-79
2022/11/09 01:46:47;;;;;;;5.95;3.55;;;15.10;99.90;;;;;;5092444;28;20150;-79
2022/11/09 01:49:19;;;;;;;6.22;3.88;;;15.10;99.90;;;;;;5092641;28;20024;-79
2022/11/09 01:52:02;;;;;;;5.50;3.70;;;15.10;99.90;;;;;;5090878;28;20451;-79
2022/11/09 01:54:30;;;;;;;6.07;4.13;;;15.40;99.90;;;;;;5092315;28;20437;-79
2022/11/09 01:57:01;;;;;;;7.03;3.60;;;15.10;99.90;;;;;;5093017;28;20032;-79
2022/11/09 01:59:31;;;;;;;7.32;4.55;;;15.00;99.90;;;;;;5092219;28;20501;-79
2022/11/09 02:01:59;;;;;;;7.80;4.13;;;15.00;99.90;;;;;;5091627;28;20016;-79
2022/11/09 02:04:37;;;;;;;6.13;3.88;;;14.90;99.90;;;;;;5092418;28;20036;-79
2022/11/09 02:07:03;;;;;;;6.93;3.78;;;14.90;99.90;;;;;;5091545;28;20012;-79
2022/11/09 02:09:38;;;;;;;6.53;4.22;;;14.90;99.90;;;;;;5092144;28;20525;-79
2022/11/09 02:12:05;;;;;;;6.53;4.32;;;15.00;99.90;;;;;;5092032;28;20027;-79
2022/11/09 02:14:32;;;;;;;5.40;4.13;;;15.00;99.90;;;;;;5095410;28;20020;-79
2022/11/09 02:16:58;;;;;;;5.05;4.03;;;14.90;99.90;;;;;;5101357;28;20019;-79
2022/11/09 02:19:24;;;;;;;5.05;4.20;;;15.30;99.90;;;;;;5115783;28;20076;-79
2022/11/09 02:21:50;;;;;;;7.15;4.10;;;15.00;99.90;;;;;;5116183;28;20027;-79
2022/11/09 02:24:16;;;;;;;6.38;4.15;;;15.00;99.90;;;;;;5116029;28;20035;-79
2022/11/09 02:26:50;;;;;;;5.85;4.10;;;14.90;99.90;;;;;;5116221;28;20026;-80
2022/11/09 02:29:27;;;;;;;7.65;4.25;;;14.80;99.90;;;;;;5115741;28;20429;-79
2022/11/09 02:31:56;;;;;;;6.22;4.43;;;14.80;99.90;;;;;;5111302;28;20024;-79
2022/11/09 02:34:23;;;;;;;7.05;4.35;;;14.90;99.90;;;;;;5095599;28;20484;-80
2022/11/09 02:36:49;;;;;;;5.43;3.83;;;14.90;99.90;;;;;;5094167;28;20051;-79
2022/11/09 02:39:18;;;;;;;5.90;3.90;;;14.90;99.90;;;;;;5095459;28;20040;-79
2022/11/09 02:42:06;;;;;;;5.35;3.60;;;15.10;99.90;;;;;;5095109;28;20020;-79
2022/11/09 02:44:39;;;;;;;4.47;3.70;;;14.90;99.90;;;;;;5095225;28;20103;-79
2022/11/09 02:47:04;;;;;;;7.57;4.25;;;14.90;99.90;;;;;;5095596;28;20024;-79
2022/11/09 02:49:30;;;;;;;7.65;4.80;;;14.80;99.90;;;;;;5094984;28;20039;-79
2022/11/09 02:51:56;;;;;;;6.35;5.10;;;14.80;99.90;;;;;;5095092;28;20066;-79
2022/11/09 02:54:21;;;;;;;5.72;4.68;;;14.80;99.90;;;;;;5095082;28;20392;-79
2022/11/09 02:56:47;;;;;;;7.05;4.28;;;14.80;99.90;;;;;;5095075;28;20380;-79
2022/11/09 02:59:13;;;;;;;6.90;5.10;;;14.70;99.90;;;;;;5094927;28;20047;-79
2022/11/09 03:01:38;;;;;;;6.78;4.40;;;14.60;99.90;;;;;;5094897;28;20051;-79
2022/11/09 03:04:04;;;;;;;8.20;5.00;;;14.40;99.90;;;;;;5094748;28;20103;-79
2022/11/09 03:06:33;;;;;;;8.65;5.03;;;14.40;99.90;;;;;;5095187;28;20020;-79
2022/11/09 03:09:08;;;;;;;5.80;4.55;;;14.40;99.90;;;;;;5094789;28;20021;-79
2022/11/09 03:11:35;;;;;;;6.53;4.82;;;14.40;99.90;;;;;;5094488;28;20028;-79
2022/11/09 03:14:00;;;;;;;8.52;4.68;;;14.50;99.90;;;;;;5094551;28;20027;-79
2022/11/09 03:16:26;;;;;;;8.60;5.15;;;14.50;99.90;;;;;;5094726;28;20024;-79
2022/11/09 03:18:52;;;;;;;8.93;6.13;;;14.40;99.90;;;;;;5094946;28;20040;-79
2022/11/09 03:21:18;;;;;;;9.88;6.43;;;14.40;99.90;;;;;;5094512;28;20498;-79
2022/11/09 03:23:46;;;;;;;7.97;6.10;;;14.40;99.90;;;;;;5094345;28;20032;-79
2022/11/09 03:26:11;;;;;;;8.52;6.15;;;14.50;99.90;;;;;;5094496;28;20031;-80
2022/11/09 03:28:37;;;;;;;8.60;6.30;;;14.50;99.90;;;;;;5094310;28;20111;-79
2022/11/09 03:31:02;;;;;;;10.60;6.25;;;14.40;99.90;;;;;;5094614;28;20020;-80
2022/11/09 03:33:28;;;;;;;10.32;6.10;;;14.20;99.90;;;;;;5094251;28;20036;-79
2022/11/09 03:35:53;;;;;;;10.98;6.18;;;14.20;99.90;;;;;;5094046;28;20047;-79
2022/11/09 03:38:19;;;;;;;7.88;5.97;;;14.20;99.90;;;;;;5093936;28;20119;-80
2022/11/09 03:40:45;;;;;;;9.48;6.85;;;14.20;99.90;;;;;;5092905;28;20472;-79
2022/11/09 03:43:10;;;;;;;7.68;6.13;;;14.20;99.90;;;;;;5093692;28;20480;-80
2022/11/09 03:45:36;;;;;;;10.88;6.65;;;13.90;99.90;;;;;;5094173;28;20024;-79
2022/11/09 03:48:02;;;;;;;11.00;7.38;;;13.90;99.90;;;;;;5094176;28;20035;-79
2022/11/09 03:50:32;;;;;;;11.50;7.05;;;13.90;99.90;;;;;;5093897;28;20024;-80
2022/11/09 03:52:59;;;;;;;9.48;6.22;;;14.00;99.90;;;;;;5094445;28;20483;-80
2022/11/09 03:55:25;;;;;;;9.00;6.50;;;14.00;99.90;;;;;;5093705;28;20028;-79
2022/11/09 03:57:51;;;;;;;10.85;6.22;;;14.10;99.90;;;;;;5093702;28;20072;-79
2022/11/09 04:00:19;;;;;;;7.07;5.97;;;14.00;99.90;;;;;;5094556;28;20054;-79
2022/11/09 04:02:44;;;;;;;9.30;7.00;;;14.00;99.90;;;;;;5093742;28;20024;-79
2022/11/09 04:05:10;;;;;;;7.80;7.00;;;14.40;99.90;;;;;;5093642;28;20085;-79
2022/11/09 04:07:37;;;;;;;8.45;7.30;;;14.30;99.90;;;;;;5093557;28;20024;-79
2022/11/09 04:10:04;;;;;;;12.52;7.80;;;13.90;99.90;;;;;;5093480;28;20089;-79
2022/11/09 04:12:30;;;;;;;12.88;7.57;;;14.00;99.90;;;;;;5093502;28;20387;-79
2022/11/09 04:14:55;;;;;;;12.90;7.50;;;14.20;99.90;;;;;;5093247;28;20024;-79
2022/11/09 04:17:21;;;;;;;10.50;7.38;;;14.30;99.90;;;;;;5093161;28;20430;-80
2022/11/09 04:19:47;;;;;;;9.60;6.43;;;14.30;99.90;;;;;;5093598;28;20031;-78
2022/11/09 04:22:12;;;;;;;8.30;7.30;;;14.30;99.90;;;;;;5093383;28;20384;-79
2022/11/09 04:24:38;;;;;;;7.55;6.85;;;14.40;99.90;;;;;;5092933;28;20117;-79
2022/11/09 04:27:03;;;;;;;8.35;6.70;;;14.40;99.90;;;;;;5093462;28;20024;-79
2022/11/09 04:29:29;;;;;;;8.93;6.85;;;14.30;99.90;;;;;;5093162;28;20032;-79
2022/11/09 04:31:55;;;;;;;9.88;7.47;;;14.30;99.90;;;;;;5093012;28;20016;-79
2022/11/09 04:34:20;;;;;;;8.95;6.60;;;14.40;99.90;;;;;;5093095;28;20480;-79
2022/11/09 04:36:46;;;;;;;7.82;6.28;;;14.30;99.90;;;;;;5092486;28;20040;-80
2022/11/09 04:39:11;;;;;;;7.60;6.40;;;14.20;99.90;;;;;;5092809;28;20118;-79
2022/11/09 04:41:37;;;;;;;7.28;6.10;;;14.10;99.90;;;;;;5092668;28;20028;-79
2022/11/09 04:44:03;;;;;;;7.85;5.88;;;14.10;99.90;;;;;;5092940;28;20032;-79
2022/11/09 04:46:28;;;;;;;8.32;6.60;;;14.10;99.90;;;;;;5092345;28;20495;-79
2022/11/09 04:48:54;;;;;;;7.85;5.95;;;14.10;99.90;;;;;;5092703;28;20046;-79
2022/11/09 04:51:20;;;;;;;8.35;6.13;;;14.10;99.90;;;;;;5092708;28;20024;-80
2022/11/09 04:53:45;;;;;;;7.88;6.15;;;14.10;99.90;;;;;;5092711;28;20035;-79
2022/11/09 04:56:11;;;;;;;8.30;5.85;;;14.00;99.90;;;;;;5092841;28;20032;-79
2022/11/09 04:58:37;;;;;;;7.20;5.97;;;14.00;99.90;;;;;;5092476;28;20111;-79
2022/11/09 05:01:08;;;;;;;8.90;6.30;;;14.10;99.90;;;;;;5092316;28;20074;-79
2022/11/09 05:03:34;;;;;;;9.82;6.65;;;14.10;99.90;;;;;;5092165;28;20035;-79
2022/11/09 05:06:00;;;;;;;10.60;6.70;;;14.00;99.90;;;;;;5074245;28;20027;-80
2022/11/09 05:08:46;;;;;;;8.90;6.75;;;14.10;99.90;;;;;;5091980;28;20031;-80
2022/11/09 05:11:11;;;;;;;9.85;6.95;;;14.10;99.90;;;;;;5074692;28;20392;-80
2022/11/09 05:13:37;;;;;;;8.90;6.38;;;13.90;99.90;;;;;;5092365;28;20028;-80
2022/11/09 05:16:03;;;;;;;10.45;6.30;;;13.90;99.90;;;;;;5092427;28;20146;-80
2022/11/09 05:18:28;;;;;;;8.77;6.25;;;14.00;99.90;;;;;;5092228;28;20036;-79
2022/11/09 05:20:58;;;;;;;10.57;6.63;;;14.00;99.90;;;;;;5092552;28;20012;-80
2022/11/09 05:26:08;;;;;;;12.38;7.90;;;13.80;99.90;;;;;;5092635;28;20065;-81
2022/11/09 05:28:34;;;;;;;13.43;7.63;;;13.80;99.90;;;;;;5091947;28;20555;-81
2022/11/09 05:31:02;;;;;;;9.93;7.03;;;13.80;99.90;;;;;;5092248;28;20039;-81
2022/11/09 05:33:28;;;;;;;10.75;7.10;;;13.80;99.90;;;;;;5074289;28;20498;-81
2022/11/09 05:35:54;;;;;;;8.82;7.10;;;14.20;99.90;;;;;;5091710;28;20075;-81
2022/11/09 05:38:20;;;;;;;10.60;7.00;;;13.90;99.90;;;;;;5091924;28;20117;-81
2022/11/09 05:40:50;;;;;;;11.13;7.22;;;14.00;99.90;;;;;;5092165;28;20024;-82
2022/11/09 05:43:17;;;;;;;8.88;7.47;;;14.00;99.90;;;;;;5092353;28;20028;-81
2022/11/09 05:45:43;;;;;;;12.65;8.02;;;14.00;99.90;;;;;;5091896;28;20020;-81
2022/11/09 05:48:09;;;;;;;11.68;8.27;;;13.80;99.90;;;;;;5095552;28;20056;-81
2022/11/09 05:50:36;;;;;;;9.45;7.18;;;13.90;99.90;;;;;;5095833;28;20077;-81
2022/11/09 05:53:02;;;;;;;10.40;7.22;;;13.90;99.90;;;;;;5096181;28;20034;-81
2022/11/09 05:55:27;;;;;;;11.05;7.70;;;13.80;99.90;;;;;;5096307;28;20023;-81
2022/11/09 05:57:53;;;;;;;10.85;7.50;;;13.70;99.90;;;;;;5096315;28;20058;-80
2022/11/09 06:00:20;;;;;;;9.05;8.00;;;13.90;99.90;;;;;;5096623;28;20032;-80
2022/11/09 06:02:45;;;;;;;9.27;7.45;;;13.90;99.90;;;;;;5096522;28;20024;-80
2022/11/09 06:05:11;;;;;;;10.30;8.20;;;14.00;99.90;;;;;;5095607;28;20032;-80
2022/11/09 06:07:36;;;;;;;10.40;7.50;;;14.00;99.90;;;;;;5096034;28;20016;-81
2022/11/09 06:10:04;;;;;;;8.85;7.55;;;14.00;99.90;;;;;;5096283;28;20035;-82
2022/11/09 06:12:30;;;;;;;9.30;7.45;;;14.10;99.90;;;;;;5096091;28;20110;-81
2022/11/09 06:14:56;;;;;;;12.90;8.50;;;14.20;99.90;;;;;;5095803;28;20418;-81
2022/11/09 06:17:21;;;;;;;11.00;8.63;;;14.20;99.90;;;;;;5095658;28;20476;-81
2022/11/09 06:19:47;;;;;;;11.68;8.80;;;14.10;99.90;;;;;;5095270;28;20023;-80
2022/11/09 06:22:13;;;;;;;10.60;8.07;;;14.10;99.90;;;;;;5095871;28;20020;-81
2022/11/09 06:24:38;;;;;;;11.70;7.97;;;14.10;99.90;;;;;;5095566;28;20027;-80
2022/11/09 06:27:04;;;;;;;10.68;8.00;;;14.20;99.90;;;;;;5095956;28;20035;-81
2022/11/09 06:29:30;;;;;;;12.77;9.10;;;14.20;99.90;;;;;;5095347;28;20396;-80
2022/11/09 06:31:56;;;;;;;10.57;8.48;;;14.20;99.90;;;;;;5095919;28;20028;-80
2022/11/09 06:34:21;;;;;;;13.02;8.13;;;14.10;99.90;;;;;;5095252;28;20020;-80
2022/11/09 06:36:47;;;;;;;11.68;8.50;;;13.90;99.90;;;;;;5095450;28;20079;-80
2022/11/09 06:39:13;;;;;;;10.27;8.65;;;14.00;99.90;;;;;;5095103;28;20054;-80
2022/11/09 06:41:38;;;;;;;9.60;8.60;;;14.20;99.90;;;;;;5095010;28;20020;-80
2022/11/09 06:44:04;;;;;;;9.45;8.38;;;14.10;99.90;;;;;;5095201;28;20084;-81
2022/11/09 06:46:31;;;;;;;12.82;9.10;;;14.10;99.90;;;;;;5095514;28;20555;-81
2022/11/09 06:48:56;;;;;;;10.35;8.55;;;14.10;99.90;;;;;;5094998;28;20103;-81
2022/11/09 06:51:22;;;;;;;9.68;8.70;;;14.20;99.90;;;;;;5077109;28;20107;-80
2022/11/09 06:53:48;;;;;;;12.00;8.68;;;14.20;99.90;;;;;;5095114;28;20453;-81
2022/11/09 06:56:13;;;;;;;12.98;9.77;;;14.20;99.90;;;;;;5095271;28;20110;-81
2022/11/09 06:58:39;;;;;;;10.77;9.52;;;14.10;99.90;;;;;;5094174;28;20044;-80
2022/11/09 07:01:10;;;;;;;13.40;8.35;;;14.10;99.90;;;;;;5094853;28;20055;-80
2022/11/09 07:03:36;;;;;;;12.60;8.93;;;14.10;99.90;;;;;;5094900;28;20103;-81
2022/11/09 07:06:07;;;;;;;10.77;8.40;;;14.20;99.90;;;;;;5094842;28;20051;-81
2022/11/09 07:08:33;;;;;;;11.13;8.20;;;14.10;99.90;;;;;;5094685;28;20503;-80
2022/11/09 07:11:07;;;;;;;11.35;9.38;;;14.50;99.90;;;;;;5094602;28;20028;-81
2022/11/09 07:13:33;;;;;;;12.95;9.15;;;14.10;99.90;;;;;;5094588;28;20496;-81
2022/11/09 07:15:59;;;;;;;10.68;8.57;;;14.10;99.90;;;;;;5094138;28;20058;-80
2022/11/09 07:18:24;;;;;;;13.75;8.45;;;14.10;99.90;;;;;;5093028;28;20043;-80
2022/11/09 07:20:50;;;;;;;8.68;7.80;;;14.10;99.90;;;;;;5114727;28;20391;-81
2022/11/09 07:23:16;;;;;;;12.27;9.23;;;14.10;99.90;;;;;;5114815;28;20028;-80
2022/11/09 07:25:41;;;;;;;11.02;7.95;;;14.20;99.90;;;;;;5114825;28;20022;-80
2022/11/09 07:28:09;;;;;;;13.15;8.73;;;14.20;99.90;;;;;;5114615;28;20054;-80
2022/11/09 07:30:35;;;;;;;10.77;8.98;;;14.20;99.90;;;;;;5114681;28;20032;-80
2022/11/09 07:33:01;;;;;;;10.35;8.80;;;14.20;99.90;;;;;;5099888;28;20023;-84
2022/11/09 07:35:27;;;;;;;10.25;8.18;;;13.70;99.90;;;;;;5093348;28;20504;-82
2022/11/09 07:37:53;;;;;;;9.45;8.45;;;14.20;99.90;;;;;;5106678;28;20039;-82
2022/11/09 07:40:19;;;;;;;12.20;8.48;;;14.20;99.90;;;;;;5113989;28;20020;-82
2022/11/09 07:42:45;;;;;;;9.38;7.90;;;14.40;99.90;;;;;;5095261;28;20024;-81
2022/11/09 07:45:11;;;;;;;11.02;7.85;;;14.30;99.90;;;;;;5093671;28;20027;-82
2022/11/09 07:47:36;;;;;;;9.45;7.40;;;14.30;99.90;;;;;;5093442;28;20064;-82
2022/11/09 07:50:03;;;;;;;9.00;6.47;;;14.30;99.90;;;;;;5093971;28;20028;-82
2022/11/09 07:52:28;;;;;;;7.43;6.25;;;14.30;99.90;;;;;;5093241;28;20031;-82
2022/11/09 07:54:54;;;;;;;7.10;6.40;;;14.30;99.90;;;;;;5113033;28;20032;-81
2022/11/09 07:57:19;;;;;;;7.90;6.30;;;14.30;99.90;;;;;;5114008;28;20064;-81
2022/11/09 07:59:45;;;;;;;6.90;6.30;;;14.30;99.90;;;;;;5093444;28;20035;-81
2022/11/09 08:02:11;;;;;;;6.90;6.20;;;14.30;99.90;;;;;;5093258;28;20020;-81
2022/11/09 08:04:36;;;;;;;7.53;6.45;;;14.50;99.90;;;;;;5093146;28;20036;-81
2022/11/09 08:07:02;;;;;;;6.93;6.22;;;14.40;99.90;;;;;;5093135;28;20024;-81
2022/11/09 08:09:28;;;;;;;8.20;6.28;;;14.40;99.90;;;;;;5095860;28;20042;-81
2022/11/09 08:11:53;;;;;;;6.43;5.82;;;14.40;99.90;;;;;;5092428;28;20031;-81
2022/11/09 08:14:19;;;;;;;7.00;6.30;;;14.40;99.90;;;;;;5092419;28;20081;-82
2022/11/09 08:16:45;;;;;;;7.68;6.43;;;14.50;99.90;;;;;;5092859;28;20020;-81
2022/11/09 08:19:10;;;;;;;8.65;6.90;;;14.50;99.90;;;;;;5093330;28;20097;-82
2022/11/09 08:21:37;;;;;;;7.90;7.10;;;14.40;99.90;;;;;;5093040;28;20020;-82
2022/11/09 08:24:04;;;;;;;9.35;7.72;;;14.50;99.90;;;;;;5092886;28;20465;-81
2022/11/09 08:26:30;;;;;;;9.15;7.85;;;14.50;99.90;;;;;;5092867;28;20391;-82
2022/11/09 08:28:56;;;;;;;9.98;7.35;;;14.50;99.90;;;;;;5093545;28;20036;-81
2022/11/09 08:31:22;;;;;;;7.60;5.57;;;14.60;99.90;;;;;;5091819;28;20111;-81
2022/11/09 08:33:47;;;;;;;7.97;5.47;;;14.60;99.90;;;;;;5093104;28;20038;-81
2022/11/09 08:36:15;;;;;;;4.97;4.53;;;14.60;99.90;;;;;;5074072;28;20044;-81
2022/11/09 08:38:42;;;;;;;7.28;5.25;;;14.70;99.90;;;;;;5092991;28;20039;-81
2022/11/09 08:41:08;;;;;;;5.80;4.95;;;14.80;99.90;;;;;;5092750;28;20104;-81
2022/11/09 08:43:34;;;;;;;8.20;5.38;;;14.80;99.90;;;;;;5093297;28;20024;-81
2022/11/09 08:45:59;;;;;;;7.85;5.63;;;14.90;99.90;;;;;;5092565;28;20032;-81
2022/11/09 08:48:25;;;;;;;6.18;5.63;;;14.90;99.90;;;;;;5092598;28;20119;-81
2022/11/09 08:50:54;;;;;;;9.30;6.10;;;14.80;99.90;;;;;;5092863;28;20107;-81
2022/11/09 08:53:20;;;;;;;7.50;6.28;;;15.00;99.90;;;;;;5092763;28;20031;-80
2022/11/09 08:55:46;;;;;;;6.55;5.95;;;14.90;99.90;;;;;;5093030;28;20032;-81
2022/11/09 08:58:11;;;;;;;8.25;5.80;;;15.00;99.90;;;;;;5092427;28;20040;-81
2022/11/09 09:00:37;;;;;;;7.50;6.47;;;15.20;99.90;;;;;;5091044;28;20032;-81
2022/11/09 09:03:04;;;;;;;7.70;6.88;;;14.80;99.90;;;;;;5090995;28;20040;-81
2022/11/09 09:05:30;;;;;;;11.75;7.18;;;14.80;99.90;;;;;;5074439;28;20016;-81
2022/11/09 09:07:58;;;;;;;9.40;6.70;;;14.60;99.90;;;;;;5098480;28;20459;-81
2022/11/09 09:10:24;;;;;;;7.68;6.80;;;14.50;99.90;;;;;;5109871;28;20022;-81
2022/11/09 09:12:50;;;;;;;9.30;6.85;;;14.90;99.90;;;;;;5098438;28;20534;-81
2022/11/09 09:15:15;;;;;;;8.63;6.38;;;14.80;99.90;;;;;;5111906;28;20054;-81
2022/11/09 09:17:41;;;;;;;8.48;7.15;;;14.70;99.90;;;;;;5099872;28;20043;-81
2022/11/09 09:20:07;;;;;;;11.88;7.07;;;14.80;99.90;;;;;;5092236;28;20107;-81
2022/11/09 09:22:33;;;;;;;10.05;7.68;;;14.90;99.90;;;;;;5091680;28;20362;-81
2022/11/09 09:24:58;;;;;;;8.45;6.35;;;15.00;99.90;;;;;;5092588;28;20106;-81
2022/11/09 09:27:24;;;;;;;8.70;6.88;;;14.80;99.90;;;;;;5092234;28;20040;-81
2022/11/09 09:29:49;;;;;;;8.82;6.55;;;14.80;99.90;;;;;;5091203;28;20024;-81
2022/11/09 09:32:15;;;;;;;8.13;6.65;;;15.00;99.90;;;;;;5073972;28;20460;-81
2022/11/09 09:34:41;;;;;;;8.75;6.43;;;14.70;99.90;;;;;;5091634;28;20020;-82
2022/11/09 09:37:06;;;;;;;8.05;6.95;;;15.10;99.90;;;;;;5094703;28;20024;-82
2022/11/09 09:39:32;;;;;;;7.53;6.63;;;14.90;99.90;;;;;;5091709;28;20032;-82
2022/11/09 09:42:01;;;;;;;8.82;6.57;;;14.90;99.90;;;;;;5072946;28;20036;-86
2022/11/09 09:44:39;;;;;;;7.20;6.40;;;15.00;99.90;;;;;;5090827;28;20032;-80
2022/11/09 09:47:36;;;;;;;7.97;6.65;;;15.10;99.90;;;;;;5092032;28;20024;-81
2022/11/09 09:50:11;;;;;;;10.98;8.85;;;15.40;99.90;;;;;;4990121;28;20117;-81
2022/11/09 09:52:43;;;;;;;8.80;6.97;;;15.40;99.90;;;;;;4989566;28;20668;-81
2022/11/09 09:55:18;;;;;;;9.73;6.53;;;15.50;99.90;;;;;;4990410;28;20026;-80
2022/11/09 09:57:53;;;;;;;9.85;7.95;;;15.70;99.90;;;;;;4989564;28;20058;-81
2022/11/09 10:00:25;;;;;;;6.93;6.22;;;15.60;99.90;;;;;;4990177;28;20034;-80
2022/11/09 10:02:52;;;;;;;8.88;6.00;;;15.50;99.90;;;;;;4989844;28;20459;-80
2022/11/09 10:05:19;;;;;;;6.10;5.50;;;15.40;99.90;;;;;;4989165;28;20038;-80
2022/11/09 10:08:04;;;;;;;6.35;5.68;;;15.30;99.90;;;;;;4988819;28;20497;-80
2022/11/09 10:10:45;;;;;;;5.22;4.63;;;15.30;99.90;;;;;;4989973;28;20448;-81
2022/11/09 10:13:37;;;;;;;6.55;5.28;;;15.20;99.90;;;;;;4989287;28;20062;-81
2022/11/09 10:16:26;;;;;;;5.10;4.43;;;15.20;99.90;;;;;;4990024;28;20218;-81
2022/11/09 10:18:51;;;;;;;7.20;5.10;;;15.40;99.90;;;;;;4990140;28;20762;-81
2022/11/09 10:21:23;;;;;;;7.53;4.80;;;15.60;99.90;;;;;;4989132;28;20026;-82
2022/11/09 10:24:07;;;;;;;5.43;4.93;;;15.60;99.90;;;;;;4990053;28;20038;-81
2022/11/09 10:26:41;;;;;;;8.35;5.50;;;15.50;99.90;;;;;;5079879;28;20036;-82
2022/11/09 10:29:38;;;;;;;9.23;6.68;;;15.50;99.90;;;;;;5091111;28;20507;-82
2022/11/09 10:32:21;;;;;;;6.05;5.50;;;15.60;99.90;;;;;;5091485;28;20027;-81
2022/11/09 10:34:54;;;;;;;7.15;5.75;;;15.60;99.90;;;;;;5093819;28;20048;-81
2022/11/09 10:37:45;;;;;;;6.32;5.72;;;15.60;99.90;;;;;;5095261;28;20028;-81
2022/11/09 10:40:11;;;;;;;6.32;5.70;;;15.50;99.90;;;;;;5094337;28;20067;-81
2022/11/09 10:42:36;;;;;;;8.30;5.93;;;15.40;99.90;;;;;;5094520;28;20094;-81
2022/11/09 10:45:17;;;;;;;7.88;6.30;;;15.70;99.90;;;;;;5094376;28;20028;-82
2022/11/09 10:47:48;;;;;;;6.90;5.97;;;15.60;99.90;;;;;;5094806;28;20385;-80
2022/11/09 10:50:33;;;;;;;8.63;6.38;;;15.90;99.90;;;;;;5095005;28;20396;-81
2022/11/09 10:53:20;;;;;;;7.75;6.30;;;16.20;99.90;;;;;;5094769;28;20392;-81
2022/11/09 10:56:13;;;;;;;8.15;5.90;;;16.50;99.90;;;;;;5095048;28;20028;-81
2022/11/09 10:58:47;;;;;;;5.78;5.28;;;16.50;99.90;;;;;;5086909;28;20136;-81
2022/11/09 11:01:19;;;;;;;5.82;4.97;;;16.70;99.90;;;;;;5094855;28;20055;-81
2022/11/09 11:03:50;;;;;;;8.18;5.43;;;16.80;99.90;;;;;;5094884;28;20036;-81
2022/11/09 11:06:17;;;;;;;6.25;4.88;;;16.50;99.90;;;;;;5094684;28;20035;-81
2022/11/09 11:09:06;;;;;;;7.43;5.10;;;16.40;99.90;;;;;;5094690;28;20039;-81
2022/11/09 11:11:33;;;;;;;6.20;5.35;;;16.20;99.90;;;;;;5094415;28;20452;-81
2022/11/09 11:14:20;;;;;;;6.88;4.60;;;16.00;99.90;;;;;;5094789;28;20341;-81
2022/11/09 11:16:46;;;;;;;4.93;4.32;;;16.10;99.90;;;;;;5094638;28;20032;-81
2022/11/09 11:19:37;;;;;;;5.40;4.10;;;16.20;99.90;;;;;;5094532;28;20064;-81
2022/11/09 11:22:11;;;;;;;5.22;4.10;;;16.20;99.90;;;;;;5094564;28;20032;-81
2022/11/09 11:24:58;;;;;;;5.50;4.22;;;16.20;99.90;;;;;;5094428;28;20024;-80
2022/11/09 11:27:51;;;;;;;5.65;4.53;;;16.10;99.90;;;;;;5094331;28;20093;-81
2022/11/09 11:30:27;;;;;;;6.00;4.78;;;16.10;99.90;;;;;;5094094;28;20507;-80
2022/11/09 11:32:53;;;;;;;6.05;5.00;;;16.00;99.90;;;;;;5094579;28;20024;-80
2022/11/09 11:35:44;;;;;;;4.40;3.92;;;16.10;99.90;;;;;;5094291;28;20133;-81
2022/11/09 11:38:34;;;;;;;4.20;3.00;;;16.10;99.90;;;;;;5093619;28;20608;-80
2022/11/09 11:41:15;;;;;;;5.07;3.00;;;16.00;99.90;;;;;;5094056;28;20024;-80
2022/11/09 11:43:49;;;;;;;3.08;2.85;;;16.00;99.90;;;;;;5094024;28;20061;-81
2022/11/09 11:46:33;;;;;;;4.47;2.97;;;16.20;99.90;;;;;;5095066;28;20534;-80
2022/11/09 11:49:39;;;;;;;5.78;3.05;;;16.30;99.90;;;;;;5093906;28;20066;-81
2022/11/09 11:52:24;;;;;;;3.42;2.72;;;16.50;99.90;;;;;;5094030;28;20468;-81
2022/11/09 11:55:14;;;;;;;3.85;2.75;;;16.60;99.90;;;;;;5093510;28;20479;-81
2022/11/09 11:57:58;;;;;;;4.68;3.08;;;16.80;99.90;;;;;;5093577;28;20035;-80
2022/11/09 12:00:24;;;;;;;4.57;2.85;;;16.70;99.90;;;;;;5093636;28;20020;-81
2022/11/09 12:03:06;;;;;;;3.45;3.10;;;16.50;99.90;;;;;;5076318;28;20381;-81
2022/11/09 12:06:01;;;;;;;3.42;3.13;;;16.70;99.90;;;;;;5093178;28;20357;-81
2022/11/09 12:08:59;;;;;;;4.40;2.95;;;16.80;99.90;;;;;;5093602;28;20027;-81
2022/11/09 12:11:51;;;;;;;2.65;2.20;;;16.80;99.90;;;;;;5093520;28;20051;-81
2022/11/09 12:14:45;;;;;;;3.60;2.70;;;16.50;99.90;;;;;;5093833;28;20027;-81
2022/11/09 12:17:29;;;;;;;3.28;2.50;;;16.40;99.90;;;;;;5093089;28;20050;-81
2022/11/09 12:20:06;;;;;;;3.42;2.40;;;16.40;99.90;;;;;;5093350;28;20097;-81
2022/11/09 12:23:07;;;;;;;4.22;3.00;;;16.40;99.90;;;;;;5093052;28;20060;-81
2022/11/09 12:25:45;;;;;;;2.83;2.50;;;16.30;99.90;;;;;;4991947;28;20557;-81
2022/11/09 12:28:33;;;;;;;3.17;2.60;;;16.20;99.90;;;;;;4991495;28;20026;-81
2022/11/09 12:31:17;;;;;;;4.10;3.30;;;16.00;99.90;;;;;;4991756;28;20078;-81
2022/11/09 12:34:21;;;;;;;7.15;3.70;;;15.90;99.90;;;;;;4991391;28;20026;-81
2022/11/09 12:36:58;;;;;;;17.63;4.30;;;15.80;99.90;;;;;;4987130;28;20049;-80
2022/11/09 12:39:46;;;;;;;8.88;2.40;;;15.50;1.00;;;;;;4991128;28;20054;-81
2022/11/09 12:42:20;;;;;;;8.43;2.05;;;14.80;99.90;;;;;;4974916;28;20035;-81
2022/11/09 12:45:21;;;;;;;2.20;1.38;;;14.00;98.10;;;;;;4991280;28;20034;-80
2022/11/09 12:47:46;;;;;;;1.33;0.90;;;13.60;99.90;;;;;;4991089;28;20105;-80
2022/11/09 12:50:18;;;;;;;5.13;1.20;;;13.60;41.60;;;;;;4991278;28;20118;-80
2022/11/09 12:52:47;;;;;;;3.95;1.30;;;13.20;99.90;;;;;;4990776;28;20031;-80
2022/11/09 12:55:15;;;;;;;2.10;1.17;;;13.10;99.90;;;;;;4991072;28;20125;-80
2022/11/09 12:57:45;;;;;;;2.53;1.30;;;13.50;99.90;;;;;;4990497;28;20038;-80
2022/11/09 13:00:33;;;;;;;2.20;1.13;;;13.40;99.90;;;;;;4990984;28;20034;-80
2022/11/09 13:03:05;;;;;;;2.83;1.30;;;13.40;99.90;;;;;;5051783;28;20044;-80